Time;durP1;ratioP1;P1;durP2;ratioP2;P2;SDS_P1;SDS_P2;PMS_P1;PMS_P2;Temp;Humidity;BMP_temperature;BMP_pressure;BME280_temperature;BME280_humidity;BME280_pressure;Samples;Min_cycle;Max_cycle;Signal;HPM_P1;HPM_P2
2022/07/08 00:00:47;;;;;;;14.13;1.83;;;;;;;15.27;64.49;102884.03;5076576;28;20037;-75
2022/07/08 00:03:15;;;;;;;6.10;1.30;;;;;;;15.25;64.85;102874.34;5076656;28;20160;-75
2022/07/08 00:05:46;;;;;;;8.60;1.38;;;;;;;15.23;64.88;102892.97;5078242;28;20045;-76
2022/07/08 00:08:13;;;;;;;5.00;1.40;;;;;;;15.20;65.06;102887.72;5073974;28;20080;-76
2022/07/08 00:10:40;;;;;;;6.25;1.45;;;;;;;15.16;65.38;102883.38;5077895;28;20116;-76
2022/07/08 00:13:07;;;;;;;9.43;1.50;;;;;;;15.12;65.29;102893.16;5075497;28;20517;-76
2022/07/08 00:15:34;;;;;;;7.53;1.42;;;;;;;15.09;65.45;102894.97;5077625;28;20081;-77
2022/07/08 00:18:02;;;;;;;8.30;1.60;;;;;;;15.05;65.64;102895.06;5076438;28;20037;-78
2022/07/08 00:20:30;;;;;;;10.27;1.77;;;;;;;15.03;66.03;102907.47;5077297;28;20037;-74
2022/07/08 00:22:57;;;;;;;7.97;2.03;;;;;;;15.01;66.03;102897.75;5073666;28;20052;-75
2022/07/08 00:25:25;;;;;;;7.93;1.40;;;;;;;14.98;66.09;102898.69;5072906;28;20122;-75
2022/07/08 00:27:52;;;;;;;5.45;1.80;;;;;;;14.98;66.17;102903.13;5072859;28;20053;-75
2022/07/08 00:30:19;;;;;;;8.88;1.48;;;;;;;14.95;66.19;102900.53;5071010;28;20076;-76
2022/07/08 00:32:47;;;;;;;5.55;1.30;;;;;;;14.93;66.33;102902.31;5072618;28;20129;-75
2022/07/08 00:35:15;;;;;;;4.22;1.33;;;;;;;14.90;66.42;102906.78;5072578;28;20099;-75
2022/07/08 00:37:42;;;;;;;5.82;1.35;;;;;;;14.91;66.51;102902.34;5073523;28;20115;-77
2022/07/08 00:40:11;;;;;;;8.63;1.58;;;;;;;14.91;66.43;102897.03;5072023;28;20122;-78
2022/07/08 00:42:39;;;;;;;6.85;1.70;;;;;;;14.89;66.53;102901.50;5073376;28;20045;-77
2022/07/08 00:45:07;;;;;;;10.85;1.92;;;;;;;14.88;66.56;102903.28;5072812;28;20072;-76
2022/07/08 00:47:34;;;;;;;9.65;1.02;;;;;;;14.89;66.61;102902.38;5072888;28;20112;-76
2022/07/08 00:50:01;;;;;;;7.80;1.38;;;;;;;14.90;66.39;102898.81;5072927;28;20112;-76
2022/07/08 00:52:28;;;;;;;7.20;1.70;;;;;;;14.93;66.00;102905.88;5071635;28;20037;-74
2022/07/08 00:54:56;;;;;;;8.02;1.65;;;;;;;14.89;66.04;102902.38;5072652;28;20932;-75
2022/07/08 00:57:25;;;;;;;6.30;1.50;;;;;;;14.88;66.30;102900.63;5072564;28;20041;-75
2022/07/08 00:59:54;;;;;;;7.18;1.38;;;;;;;14.89;66.38;102904.16;5069626;28;20041;-75
2022/07/08 01:02:21;;;;;;;12.50;1.70;;;;;;;14.89;66.64;102905.03;5072126;28;20615;-74
2022/07/08 01:04:50;;;;;;;6.40;1.58;;;;;;;14.88;66.61;102905.03;5072611;28;20102;-75
2022/07/08 01:07:18;;;;;;;8.07;1.55;;;;;;;14.87;66.72;102905.94;5071829;28;20040;-75
2022/07/08 01:09:47;;;;;;;7.70;1.65;;;;;;;14.85;66.77;102913.94;5071510;28;20068;-76
2022/07/08 01:12:14;;;;;;;5.78;1.58;;;;;;;14.85;66.91;102910.44;5073365;28;20045;-75
2022/07/08 01:14:41;;;;;;;8.13;1.60;;;;;;;14.82;66.87;102902.50;5064150;28;20041;-76
2022/07/08 01:17:08;;;;;;;7.53;1.50;;;;;;;14.79;67.05;102916.72;5072785;28;20048;-75
2022/07/08 01:19:35;;;;;;;7.65;1.73;;;;;;;14.76;67.29;102911.44;5071005;28;20044;-76
2022/07/08 01:22:03;;;;;;;13.68;1.92;;;;;;;14.75;67.30;102913.19;5073553;28;20044;-75
2022/07/08 01:24:30;;;;;;;5.18;1.45;;;;;;;14.76;67.43;102911.44;5070402;28;20049;-76
2022/07/08 01:26:57;;;;;;;9.77;1.55;;;;;;;14.75;67.27;102909.69;5069138;28;20120;-72
2022/07/08 01:29:24;;;;;;;10.57;1.83;;;;;;;14.73;67.40;102906.16;5070816;28;20116;-73
2022/07/08 01:32:00;;;;;;;10.73;1.70;;;;;;;14.71;67.41;102911.50;5073319;28;20075;-74
2022/07/08 01:34:27;;;;;;;6.93;1.60;;;;;;;14.68;67.56;102911.53;5070258;28;20044;-73
2022/07/08 01:36:54;;;;;;;10.02;1.90;;;;;;;14.67;67.71;102911.56;5073149;28;20328;-78
2022/07/08 01:39:22;;;;;;;8.68;1.75;;;;;;;14.67;67.84;102909.78;5073240;28;20772;-78
2022/07/08 01:41:50;;;;;;;6.90;1.50;;;;;;;14.68;67.37;102908.03;5072780;28;20044;-79
2022/07/08 01:44:22;;;;;;;10.63;1.98;;;;;;;14.64;67.79;102907.16;5074895;28;20124;-77
2022/07/08 01:46:49;;;;;;;10.23;1.55;;;;;;;14.59;67.69;102904.56;5071753;28;20045;-78
2022/07/08 01:49:17;;;;;;;8.52;1.60;;;;;;;14.58;67.75;102901.91;5071639;28;20037;-76
2022/07/08 01:51:44;;;;;;;5.07;1.55;;;;;;;14.57;67.78;102901.06;5067721;28;20048;-76
2022/07/08 01:54:12;;;;;;;6.97;1.25;;;;;;;14.57;68.13;102900.16;5077467;28;20044;-76
2022/07/08 01:56:46;;;;;;;10.05;1.75;;;;;;;14.55;68.07;102902.00;5073225;28;20077;-76
2022/07/08 01:59:13;;;;;;;9.75;2.05;;;;;;;14.54;68.00;102902.88;5078322;28;20064;-76
2022/07/08 02:01:40;;;;;;;6.70;1.50;;;;;;;14.52;68.12;102900.22;5071807;28;20555;-77
2022/07/08 02:04:07;;;;;;;8.02;1.67;;;;;;;14.50;68.18;102899.38;5066634;28;20044;-74
2022/07/08 02:06:35;;;;;;;11.57;2.00;;;;;;;14.49;68.11;102908.25;5066723;28;20065;-76
2022/07/08 02:09:04;;;;;;;7.72;1.60;;;;;;;14.50;68.03;102904.69;5072099;28;20056;-76
2022/07/08 02:14:16;;;;;;;5.82;1.60;;;;;;;14.39;68.27;102909.28;5072246;28;20055;-76
2022/07/08 02:16:43;;;;;;;10.13;1.60;;;;;;;14.36;68.57;102912.81;5071056;28;20095;-75
2022/07/08 02:19:16;;;;;;;7.53;1.60;;;;;;;14.35;68.41;102908.41;5072601;28;20128;-76
2022/07/08 02:21:44;;;;;;;10.45;1.75;;;;;;;14.33;68.66;102909.34;5069220;28;20041;-76
2022/07/08 02:24:11;;;;;;;9.25;1.55;;;;;;;14.32;68.66;102902.28;5070734;28;20041;-76
2022/07/08 02:26:38;;;;;;;7.90;1.65;;;;;;;14.33;68.69;102906.69;5070343;28;20123;-75
2022/07/08 02:29:05;;;;;;;12.40;1.77;;;;;;;14.31;68.90;102908.47;5070979;28;20045;-76
2022/07/08 02:31:33;;;;;;;11.57;1.90;;;;;;;14.28;68.74;102905.00;5070499;28;20041;-76
2022/07/08 02:34:00;;;;;;;10.93;2.25;;;;;;;14.25;68.94;102899.72;5071092;28;20407;-76
2022/07/08 02:36:27;;;;;;;8.10;1.70;;;;;;;14.23;68.99;102908.59;5062827;28;20128;-76
2022/07/08 02:38:55;;;;;;;4.50;1.52;;;;;;;14.21;69.10;102910.38;5071850;28;20069;-76
2022/07/08 02:41:22;;;;;;;10.25;1.92;;;;;;;14.18;69.11;102905.13;5069583;28;22249;-75
2022/07/08 02:43:49;;;;;;;6.75;1.70;;;;;;;14.19;69.29;102906.88;5071198;28;20044;-75
2022/07/08 02:46:16;;;;;;;7.57;1.80;;;;;;;14.17;69.36;102912.22;5069475;28;20033;-72
2022/07/08 02:48:43;;;;;;;6.93;1.55;;;;;;;14.13;69.55;102908.72;5071480;28;20128;-74
2022/07/08 02:51:10;;;;;;;5.43;1.60;;;;;;;14.14;69.60;102910.44;5069820;28;20238;-76
2022/07/08 02:53:37;;;;;;;5.13;1.50;;;;;;;14.14;69.50;102913.09;5072164;28;20603;-76
2022/07/08 02:56:05;;;;;;;7.68;1.60;;;;;;;14.11;69.54;102913.16;5071815;28;20506;-77
2022/07/08 02:58:32;;;;;;;6.53;1.60;;;;;;;14.06;69.66;102907.03;5071301;28;20391;-76
2022/07/08 03:00:59;;;;;;;10.80;1.85;;;;;;;14.03;69.80;102907.06;5068546;28;20051;-76
2022/07/08 03:03:26;;;;;;;12.40;2.20;;;;;;;14.00;69.76;102907.09;5070103;28;20049;-77
2022/07/08 03:05:53;;;;;;;8.77;2.08;;;;;;;13.97;69.95;102902.72;5071536;28;20033;-77
2022/07/08 03:08:20;;;;;;;8.60;1.98;;;;;;;13.95;70.06;102909.81;5071435;28;20068;-77
2022/07/08 03:10:49;;;;;;;7.97;1.90;;;;;;;13.90;70.14;102905.44;5069766;28;20037;-76
2022/07/08 03:13:16;;;;;;;10.45;1.63;;;;;;;13.82;70.10;102911.72;5071468;28;20116;-76
2022/07/08 03:15:44;;;;;;;11.25;2.22;;;;;;;13.78;70.45;102912.66;5070229;28;20072;-76
2022/07/08 03:18:11;;;;;;;11.02;1.90;;;;;;;13.76;70.61;102919.72;5069566;28;20496;-77
2022/07/08 03:20:38;;;;;;;7.45;1.80;;;;;;;13.73;71.00;102919.78;5071133;28;20072;-77
2022/07/08 03:23:06;;;;;;;6.80;2.00;;;;;;;13.73;70.91;102919.78;5070977;28;20044;-77
2022/07/08 03:25:33;;;;;;;8.27;1.98;;;;;;;13.71;70.87;102913.63;5070364;28;20067;-77
2022/07/08 03:28:01;;;;;;;10.32;2.50;;;;;;;13.71;71.01;102920.66;5069556;28;20045;-77
2022/07/08 03:30:28;;;;;;;10.82;2.15;;;;;;;13.69;70.91;102918.03;5070397;28;20065;-77
2022/07/08 03:32:56;;;;;;;13.07;2.20;;;;;;;13.70;71.21;102918.91;5070968;28;20045;-77
2022/07/08 03:35:23;;;;;;;8.30;2.08;;;;;;;13.70;71.36;102918.91;5070205;28;20041;-77
2022/07/08 03:37:50;;;;;;;7.30;1.98;;;;;;;13.69;71.45;102927.75;5070321;28;20155;-78
2022/07/08 03:43:03;;;;;;;9.52;2.30;;;;;;;13.64;71.16;102920.75;5069302;28;20047;-77
2022/07/08 03:45:30;;;;;;;8.95;2.20;;;;;;;13.62;71.40;102927.81;5071690;28;20041;-77
2022/07/08 03:48:00;;;;;;;9.05;2.20;;;;;;;13.59;71.31;102929.63;5070066;28;20047;-77
2022/07/08 03:50:27;;;;;;;10.18;2.15;;;;;;;13.59;71.21;102929.63;5071027;28;20041;-76
2022/07/08 03:52:55;;;;;;;10.52;2.17;;;;;;;13.64;70.94;102927.81;5068487;28;20051;-77
2022/07/08 03:55:24;;;;;;;6.43;2.30;;;;;;;13.62;71.07;102925.19;5070976;28;20044;-76
2022/07/08 03:57:52;;;;;;;9.88;2.67;;;;;;;13.54;71.03;102929.69;5071893;28;20504;-77
2022/07/08 04:00:20;;;;;;;6.72;2.13;;;;;;;13.47;71.21;102925.34;5074767;28;20523;-77
2022/07/08 04:02:47;;;;;;;6.22;2.13;;;;;;;13.45;71.43;102929.78;5072445;28;20518;-76
2022/07/08 04:05:14;;;;;;;12.77;2.28;;;;;;;13.43;71.62;102923.59;5054954;28;20046;-76
2022/07/08 04:07:41;;;;;;;11.57;3.10;;;;;;;13.43;71.51;102936.84;5060017;28;20665;-74
2022/07/08 04:10:15;;;;;;;8.68;2.08;;;;;;;13.44;71.42;102933.31;5074458;28;20045;-75
2022/07/08 04:12:42;;;;;;;11.88;2.33;;;;;;;13.45;71.52;102945.66;5072890;28;20049;-76
2022/07/08 04:15:10;;;;;;;14.07;2.70;;;;;;;13.48;71.58;102943.00;5073903;28;20104;-79
2022/07/08 04:17:38;;;;;;;9.88;2.70;;;;;;;13.51;71.44;102942.94;5072284;28;20294;-78
2022/07/08 04:20:06;;;;;;;15.95;2.75;;;;;;;13.57;71.57;102945.56;5068463;28;20037;-75
2022/07/08 04:22:35;;;;;;;10.05;2.70;;;;;;;13.60;71.99;102948.16;5071964;28;20459;-75
2022/07/08 04:25:03;;;;;;;7.13;2.72;;;;;;;13.61;71.64;102957.00;5074813;28;20042;-75
2022/07/08 04:27:30;;;;;;;11.60;3.00;;;;;;;13.63;71.52;102957.88;5073092;28;20041;-75
2022/07/08 04:29:57;;;;;;;12.13;3.28;;;;;;;13.64;71.65;102955.19;5073190;28;20041;-76
2022/07/08 04:32:24;;;;;;;10.23;3.70;;;;;;;13.65;71.54;102958.72;5066711;28;20501;-73
2022/07/08 04:34:51;;;;;;;10.05;3.10;;;;;;;13.67;71.26;102951.63;5067359;28;20112;-74
2022/07/08 04:37:18;;;;;;;12.60;3.00;;;;;;;13.72;71.37;102954.22;5065684;28;20044;-76
2022/07/08 04:39:46;;;;;;;9.90;3.45;;;;;;;13.73;71.38;102959.53;5065362;28;20040;-77
2022/07/08 04:42:13;;;;;;;13.32;3.42;;;;;;;13.76;71.47;102959.50;5071898;28;20045;-76
2022/07/08 04:44:40;;;;;;;11.55;3.55;;;;;;;13.76;71.64;102966.56;5075724;28;20049;-76
2022/07/08 04:47:07;;;;;;;22.50;4.50;;;;;;;13.76;71.45;102963.94;5073181;28;20475;-75
2022/07/08 04:49:34;;;;;;;12.68;3.88;;;;;;;13.76;71.49;102961.28;5072300;28;20037;-77
2022/07/08 04:52:01;;;;;;;18.52;4.43;;;;;;;13.80;71.37;102969.19;5073419;28;20417;-76
2022/07/08 04:54:29;;;;;;;12.40;3.58;;;;;;;13.86;71.45;102977.94;5064883;28;20844;-76
2022/07/08 04:56:56;;;;;;;8.07;3.88;;;;;;;13.96;71.24;102975.22;5068649;28;20041;-76
2022/07/08 04:59:23;;;;;;;11.00;4.05;;;;;;;14.03;71.17;102976.03;5071950;28;20067;-77
2022/07/08 05:01:50;;;;;;;19.63;4.55;;;;;;;14.11;71.20;102983.88;5072581;28;20049;-75
2022/07/08 05:04:17;;;;;;;20.45;4.60;;;;;;;14.18;71.46;102985.59;5071599;28;20113;-76
2022/07/08 05:06:45;;;;;;;13.63;3.70;;;;;;;14.33;71.00;102988.94;5073451;28;20041;-76
2022/07/08 05:09:12;;;;;;;11.55;3.30;;;;;;;14.45;70.53;102984.34;5071649;28;20080;-76
2022/07/08 05:11:41;;;;;;;12.25;3.50;;;;;;;14.54;70.31;102999.28;5072612;28;20073;-76
2022/07/08 05:14:13;;;;;;;12.10;3.70;;;;;;;14.65;69.96;102999.13;5072898;28;20033;-76
2022/07/08 05:16:42;;;;;;;7.95;3.03;;;;;;;14.91;68.93;103000.59;5070455;28;20053;-76
2022/07/08 05:19:10;;;;;;;10.07;3.50;;;;;;;15.14;68.30;103000.25;5070107;28;20112;-76
2022/07/08 05:21:37;;;;;;;7.82;2.72;;;;;;;15.20;68.00;102999.28;5071825;28;20222;-76
2022/07/08 05:24:13;;;;;;;11.23;3.08;;;;;;;15.72;66.33;102996.69;5058602;28;20126;-76
2022/07/08 05:26:40;;;;;;;23.67;3.58;;;;;;;15.96;65.64;103001.59;5072123;28;20047;-76
2022/07/08 05:29:07;;;;;;;10.07;2.70;;;;;;;15.96;65.88;103003.34;5073617;28;20322;-77
2022/07/08 05:31:34;;;;;;;8.48;3.20;;;;;;;16.61;64.93;103010.06;5068148;28;20551;-77
2022/07/08 05:34:02;;;;;;;10.38;3.00;;;;;;;19.16;59.44;103007.81;5061595;28;20856;-76
2022/07/08 05:36:29;;;;;;;13.82;3.00;;;;;;;21.35;53.74;103002.53;5074238;28;20561;-77
2022/07/08 05:38:57;;;;;;;10.10;2.55;;;;;;;23.01;48.62;102993.25;5059342;28;20133;-77
2022/07/08 05:41:24;;;;;;;8.00;2.20;;;;;;;24.27;44.74;102992.22;5066827;28;20045;-77
2022/07/08 05:43:53;;;;;;;9.05;2.17;;;;;;;25.20;42.26;102995.09;5059637;28;20156;-77
2022/07/08 05:46:21;;;;;;;7.95;2.40;;;;;;;25.86;40.10;102991.16;5057796;28;20041;-76
2022/07/08 05:48:48;;;;;;;10.77;2.35;;;;;;;26.49;38.98;102988.19;5057528;28;20033;-78
2022/07/08 05:51:15;;;;;;;10.40;1.98;;;;;;;27.15;37.57;102995.63;5058772;28;20599;-77
2022/07/08 05:53:49;;;;;;;10.73;2.30;;;;;;;27.61;36.13;103005.19;5047718;28;20109;-77
2022/07/08 05:56:17;;;;;;;11.23;2.22;;;;;;;28.05;35.47;102996.63;5068364;28;20044;-78
2022/07/08 05:58:47;;;;;;;11.63;2.10;;;;;;;28.43;34.53;103000.28;5070582;28;20115;-78
2022/07/08 06:01:14;;;;;;;6.75;1.90;;;;;;;28.76;34.48;103000.66;5066489;28;20045;-77
2022/07/08 06:03:42;;;;;;;10.35;2.10;;;;;;;29.17;34.16;102987.63;5051921;28;20828;-77
2022/07/08 06:06:09;;;;;;;7.28;1.73;;;;;;;29.68;33.04;102990.00;5059517;28;20041;-78
2022/07/08 06:08:36;;;;;;;7.50;2.00;;;;;;;30.04;31.61;102987.22;5071604;28;20056;-77
2022/07/08 06:11:04;;;;;;;10.07;1.58;;;;;;;30.26;30.84;102990.94;5071556;28;20040;-78
2022/07/08 06:13:31;;;;;;;8.65;1.83;;;;;;;30.34;30.24;102988.44;5061498;28;20560;-78
2022/07/08 06:15:58;;;;;;;12.63;2.00;;;;;;;29.56;31.05;103002.72;5071932;28;20501;-78
2022/07/08 06:18:26;;;;;;;13.20;1.85;;;;;;;29.33;31.52;103003.63;5071259;28;20091;-77
2022/07/08 06:20:53;;;;;;;10.73;1.80;;;;;;;29.04;31.43;103007.59;5071153;28;20488;-77
2022/07/08 06:23:21;;;;;;;6.35;1.45;;;;;;;27.43;33.74;103008.16;5080524;28;20084;-77
2022/07/08 06:25:49;;;;;;;13.07;1.80;;;;;;;24.89;37.75;102999.59;5070026;28;20037;-78
2022/07/08 06:28:16;;;;;;;10.40;1.75;;;;;;;22.84;41.98;103015.59;5052084;28;20468;-78
2022/07/08 06:30:44;;;;;;;10.20;1.90;;;;;;;21.42;44.82;103023.66;5052447;28;20049;-77
2022/07/08 06:33:12;;;;;;;12.77;2.30;;;;;;;20.40;47.50;103030.31;5054161;28;20092;-77
2022/07/08 06:35:39;;;;;;;10.68;1.83;;;;;;;19.67;50.02;103032.88;5068930;28;20067;-78
2022/07/08 06:38:06;;;;;;;17.88;2.03;;;;;;;19.18;51.28;103029.16;5072613;28;20044;-79
2022/07/08 06:40:33;;;;;;;15.88;1.98;;;;;;;18.87;52.61;103022.06;5066231;28;20051;-77
2022/07/08 06:43:02;;;;;;;14.20;2.13;;;;;;;18.83;53.13;103031.97;5072694;28;20108;-77
2022/07/08 06:45:32;;;;;;;6.15;1.58;;;;;;;18.91;53.41;103026.41;5069123;28;20095;-77
2022/07/08 06:47:59;;;;;;;8.82;1.90;;;;;;;18.89;53.17;103034.44;5062934;28;20123;-78
2022/07/08 06:50:27;;;;;;;19.20;2.55;;;;;;;18.78;53.30;103032.13;5063001;28;20128;-77
2022/07/08 06:52:55;;;;;;;11.48;1.85;;;;;;;18.66;53.33;103028.94;5059853;28;20136;-77
2022/07/08 06:55:22;;;;;;;14.73;2.35;;;;;;;18.49;54.62;103027.63;5066194;28;20684;-77
2022/07/08 06:57:50;;;;;;;8.35;1.90;;;;;;;18.47;54.91;103021.47;5059884;28;20095;-78
2022/07/08 07:00:18;;;;;;;9.57;1.77;;;;;;;18.37;55.04;103019.97;5062489;28;20099;-77
2022/07/08 07:02:47;;;;;;;11.40;2.00;;;;;;;18.22;55.55;103029.28;5061462;28;20037;-77
2022/07/08 07:05:15;;;;;;;10.23;1.63;;;;;;;18.20;56.02;103031.16;5062199;28;20048;-78
2022/07/08 07:07:42;;;;;;;10.75;2.13;;;;;;;18.24;55.97;103022.13;5063202;28;20567;-77
2022/07/08 07:10:10;;;;;;;10.70;2.10;;;;;;;18.30;55.79;103025.50;5064579;28;20037;-77
2022/07/08 07:12:38;;;;;;;6.47;1.48;;;;;;;18.40;55.26;103026.13;5059722;28;20050;-78
2022/07/08 07:15:06;;;;;;;12.77;1.90;;;;;;;18.40;55.59;103014.56;5064006;28;20451;-78
2022/07/08 07:17:35;;;;;;;17.15;2.30;;;;;;;18.57;56.02;103025.63;5093982;28;20052;-79
2022/07/08 07:20:03;;;;;;;8.02;1.98;;;;;;;18.71;55.72;103024.34;5060789;28;20161;-77
2022/07/08 07:22:30;;;;;;;15.15;2.38;;;;;;;18.82;55.76;103027.56;5060473;28;20577;-77
2022/07/08 07:24:57;;;;;;;10.25;1.77;;;;;;;18.99;55.38;103019.06;5066916;28;20049;-78
2022/07/08 07:27:24;;;;;;;17.52;2.65;;;;;;;19.06;54.85;103020.59;5060474;28;20080;-78
2022/07/08 07:29:51;;;;;;;11.57;1.90;;;;;;;19.15;54.22;103026.56;5064590;28;20106;-78
2022/07/08 07:32:19;;;;;;;12.52;1.92;;;;;;;19.19;54.56;103033.59;5073526;28;20381;-78
2022/07/08 07:34:46;;;;;;;9.85;1.77;;;;;;;19.31;54.31;103029.63;5075454;28;20095;-78
2022/07/08 07:37:13;;;;;;;9.63;2.05;;;;;;;19.35;53.45;103024.13;5059645;28;20496;-78
2022/07/08 07:39:40;;;;;;;14.27;2.03;;;;;;;19.29;53.21;103027.00;5062522;28;20501;-78
2022/07/08 07:42:07;;;;;;;14.80;1.80;;;;;;;19.33;53.92;103025.97;5065029;28;20053;-79
2022/07/08 07:44:34;;;;;;;13.55;2.10;;;;;;;19.38;53.23;103023.16;5075301;28;20041;-79
2022/07/08 07:47:02;;;;;;;10.00;1.98;;;;;;;19.37;53.75;103026.78;5058751;28;20053;-77
2022/07/08 07:49:29;;;;;;;9.95;1.75;;;;;;;19.51;53.55;103020.97;5054316;28;20037;-77
2022/07/08 07:51:56;;;;;;;9.93;2.00;;;;;;;19.65;53.30;103021.34;5054977;28;20429;-77
2022/07/08 07:54:23;;;;;;;8.02;1.77;;;;;;;19.70;53.25;103024.75;5053098;28;20531;-77
2022/07/08 07:56:55;;;;;;;7.93;1.60;;;;;;;19.71;53.49;103022.94;5072948;28;20083;-78
2022/07/08 07:59:22;;;;;;;8.98;1.75;;;;;;;19.65;53.66;103026.69;5073365;28;20061;-77
2022/07/08 08:01:49;;;;;;;12.68;2.20;;;;;;;19.56;53.25;103037.72;5067773;28;20108;-78
2022/07/08 08:04:17;;;;;;;11.60;1.95;;;;;;;19.51;53.55;103040.53;5059088;28;20493;-76
2022/07/08 08:06:47;;;;;;;9.88;1.80;;;;;;;19.52;53.38;103023.56;5055516;28;20037;-76
2022/07/08 08:09:21;;;;;;;7.63;1.60;;;;;;;19.40;53.59;103040.00;5070186;28;20053;-75
2022/07/08 08:11:49;;;;;;;11.13;1.80;;;;;;;19.36;53.98;103041.06;5075272;28;20122;-77
2022/07/08 08:14:16;;;;;;;12.15;1.48;;;;;;;19.37;53.74;103038.31;5071560;28;20091;-78
2022/07/08 08:16:43;;;;;;;15.18;2.45;;;;;;;19.30;53.63;103039.47;5067486;28;20991;-76
2022/07/08 08:19:10;;;;;;;13.93;2.38;;;;;;;19.34;54.73;103032.22;5057097;28;20049;-77
2022/07/08 08:21:38;;;;;;;12.52;2.60;;;;;;;19.55;55.05;103034.19;5073774;28;20044;-77
2022/07/08 08:24:05;;;;;;;13.93;1.80;;;;;;;19.93;53.94;103038.28;5073395;28;20070;-77
2022/07/08 08:26:33;;;;;;;8.50;1.60;;;;;;;19.92;52.93;103044.56;5075204;28;20124;-79
2022/07/08 08:29:00;;;;;;;11.63;2.10;;;;;;;19.76;53.15;103042.41;5068633;28;20045;-77
2022/07/08 08:31:28;;;;;;;12.75;1.95;;;;;;;19.76;53.30;103041.50;5072883;28;20103;-76
2022/07/08 08:33:56;;;;;;;13.10;1.95;;;;;;;19.82;52.08;103047.53;5073808;28;20037;-78
2022/07/08 08:36:23;;;;;;;19.70;2.58;;;;;;;19.93;52.80;103051.66;5074406;28;20101;-78
2022/07/08 08:38:50;;;;;;;14.20;1.63;;;;;;;20.02;52.01;103040.63;5068771;28;20034;-78
2022/07/08 08:41:17;;;;;;;4.93;1.42;;;;;;;19.98;51.68;103039.88;5054231;28;20037;-77
2022/07/08 08:43:44;;;;;;;9.07;1.45;;;;;;;20.08;51.22;103039.53;5051421;28;20048;-77
2022/07/08 08:46:17;;;;;;;13.90;1.88;;;;;;;20.17;51.24;103053.47;5069369;28;20037;-78
2022/07/08 08:48:47;;;;;;;24.67;2.70;;;;;;;20.29;50.43;103048.63;5073773;28;20033;-78
2022/07/08 08:51:20;;;;;;;5.97;1.77;;;;;;;20.40;50.52;103050.88;5073412;28;20063;-76
2022/07/08 08:53:48;;;;;;;16.38;1.98;;;;;;;20.48;49.92;103060.38;5071245;28;20041;-77
2022/07/08 08:56:18;;;;;;;10.95;1.80;;;;;;;20.62;49.27;103046.47;5066844;28;20065;-77
2022/07/08 08:58:47;;;;;;;13.65;1.50;;;;;;;20.72;49.15;103046.97;5053165;28;20077;-78
2022/07/08 09:01:17;;;;;;;11.13;1.52;;;;;;;20.81;48.96;103040.44;5052934;28;20088;-78
2022/07/08 09:03:46;;;;;;;10.55;1.65;;;;;;;20.94;48.92;103035.44;5068038;28;20124;-78
2022/07/08 09:06:13;;;;;;;9.77;1.48;;;;;;;21.04;48.09;103035.97;5058785;28;20053;-78
2022/07/08 09:08:40;;;;;;;21.05;2.58;;;;;;;21.17;48.50;103022.94;5064944;28;20710;-77
2022/07/08 09:11:08;;;;;;;5.10;1.65;;;;;;;21.38;48.10;103031.88;5073256;28;20049;-77
2022/07/08 09:13:36;;;;;;;10.85;1.75;;;;;;;21.58;47.75;103028.38;5063088;28;20557;-77
2022/07/08 09:16:09;;;;;;;8.20;1.10;;;;;;;21.77;46.71;103030.31;5057452;28;20041;-77
2022/07/08 09:18:39;;;;;;;5.63;1.17;;;;;;;21.81;45.04;103026.56;5071902;28;20492;-77
2022/07/08 09:21:07;;;;;;;19.48;2.33;;;;;;;21.86;45.09;103022.72;5072640;28;20131;-78
2022/07/08 09:23:36;;;;;;;7.45;1.50;;;;;;;21.82;45.72;103026.47;5069776;28;20107;-77
2022/07/08 09:26:10;;;;;;;9.60;1.55;;;;;;;21.87;45.29;103028.97;5068611;28;20489;-78
2022/07/08 09:28:40;;;;;;;8.02;1.30;;;;;;;22.02;45.31;103030.97;5072897;28;20542;-78
2022/07/08 09:31:13;;;;;;;5.35;1.13;;;;;;;22.12;44.39;103020.69;5072013;28;20045;-78
2022/07/08 09:33:43;;;;;;;8.88;1.40;;;;;;;22.27;44.77;103021.81;5072932;28;20547;-78
2022/07/08 09:36:11;;;;;;;6.75;1.30;;;;;;;22.43;44.68;103024.69;5073961;28;20116;-79
2022/07/08 09:38:40;;;;;;;7.13;1.60;;;;;;;22.56;44.30;103021.44;5069136;28;20073;-77
2022/07/08 09:41:15;;;;;;;30.08;2.50;;;;;;;22.65;44.53;103015.63;5057528;28;20053;-78
2022/07/08 09:43:45;;;;;;;11.32;1.50;;;;;;;22.80;43.91;103016.72;5072269;28;20053;-78
2022/07/08 09:46:13;;;;;;;5.63;1.20;;;;;;;22.90;44.41;103009.94;5055002;28;20038;-77
2022/07/08 09:48:40;;;;;;;9.38;1.45;;;;;;;23.06;44.42;103007.38;5072878;28;20048;-77
2022/07/08 09:51:08;;;;;;;4.93;1.30;;;;;;;23.18;44.37;103005.88;5072135;28;20037;-79
2022/07/08 09:53:40;;;;;;;8.20;1.77;;;;;;;23.25;43.58;103010.03;5071787;28;20226;-79
2022/07/08 09:56:08;;;;;;;8.20;1.55;;;;;;;23.31;43.92;103010.69;5071453;28;20045;-78
2022/07/08 09:58:36;;;;;;;6.38;1.38;;;;;;;23.37;44.05;103010.34;5053181;28;20480;-78
2022/07/08 10:01:04;;;;;;;11.32;1.30;;;;;;;23.36;44.04;103012.19;5058156;28;20041;-79
2022/07/08 10:03:32;;;;;;;12.70;1.77;;;;;;;23.42;44.65;103011.00;5054201;28;20052;-79
2022/07/08 10:06:02;;;;;;;5.68;1.38;;;;;;;23.60;44.77;103011.00;5064652;28;20104;-77
2022/07/08 10:08:29;;;;;;;14.02;2.28;;;;;;;23.66;43.86;103014.25;5061536;28;20084;-78
2022/07/08 10:11:05;;;;;;;5.75;1.35;;;;;;;23.60;43.63;103006.50;5053510;28;20049;-78
2022/07/08 10:13:34;;;;;;;14.82;2.17;;;;;;;23.61;42.57;103020.84;5052502;28;20516;-78
2022/07/08 10:16:08;;;;;;;11.90;1.40;;;;;;;23.48;43.62;103023.28;5059507;28;20052;-78
2022/07/08 10:18:38;;;;;;;;;;;;;;;23.34;44.23;103024.00;5064093;28;20052;-80
2022/07/08 10:21:10;;;;;;;8.10;1.30;;;;;;;23.27;44.25;103009.97;5053000;28;20305;-77
2022/07/08 10:23:45;;;;;;;7.78;1.35;;;;;;;23.34;44.67;103016.78;5062261;28;20048;-76
2022/07/08 10:26:24;;;;;;;57.53;5.75;;;;;;;23.49;44.72;103014.25;5071250;28;20041;-78
2022/07/08 10:29:10;;;;;;;8.93;1.63;;;;;;;23.59;44.32;103012.84;5064332;28;20045;-78
2022/07/08 10:31:51;;;;;;;8.77;1.60;;;;;;;23.72;44.89;103011.22;5070059;28;20117;-78
2022/07/08 10:34:31;;;;;;;5.65;1.27;;;;;;;24.00;43.45;103007.13;5071666;28;20129;-79
2022/07/08 10:37:00;;;;;;;5.22;1.00;;;;;;;24.19;42.87;103009.69;5054914;28;20131;-78
2022/07/08 10:39:38;;;;;;;22.58;2.33;;;;;;;24.26;43.35;103014.75;5062968;28;20051;-78
2022/07/08 10:42:10;;;;;;;4.88;1.13;;;;;;;24.40;42.32;103006.78;5069091;28;20041;-79
2022/07/08 10:44:43;;;;;;;11.18;1.75;;;;;;;24.28;42.26;103013.72;5072123;28;20048;-77
2022/07/08 10:47:32;;;;;;;18.13;1.97;;;;;;;24.25;42.42;103021.09;5071693;28;20120;-78
2022/07/08 10:50:06;;;;;;;9.80;1.48;;;;;;;24.09;42.46;103016.53;5061928;28;20309;-78
2022/07/08 10:52:41;;;;;;;12.48;1.50;;;;;;;24.01;42.83;103019.63;5061985;28;20045;-77
2022/07/08 10:55:15;;;;;;;10.07;1.67;;;;;;;23.93;43.56;103005.66;5071987;28;20091;-76
2022/07/08 10:57:55;;;;;;;7.00;1.40;;;;;;;23.92;43.26;103009.31;5067978;28;20052;-77
2022/07/08 11:00:23;;;;;;;6.95;1.17;;;;;;;23.82;43.36;103005.38;5072209;28;20091;-77
2022/07/08 11:02:52;;;;;;;17.67;1.88;;;;;;;23.73;43.76;102995.97;5071374;28;20120;-77
2022/07/08 11:05:42;;;;;;;22.00;2.40;;;;;;;23.97;43.90;102998.31;5060224;28;20436;-76
2022/07/08 11:08:21;;;;;;;6.70;1.48;;;;;;;24.38;43.02;102992.50;5070945;28;20081;-77
2022/07/08 11:10:55;;;;;;;13.80;1.58;;;;;;;24.73;43.39;102994.22;5069046;28;20041;-77
2022/07/08 11:13:25;;;;;;;9.68;1.60;;;;;;;24.71;42.80;102999.69;5071001;28;20124;-77
2022/07/08 11:15:53;;;;;;;6.15;1.45;;;;;;;24.73;42.41;102996.91;5051542;28;20152;-77
2022/07/08 11:18:25;;;;;;;12.23;1.60;;;;;;;24.65;42.60;102994.63;5055257;28;20041;-77
2022/07/08 11:21:01;;;;;;;12.33;2.20;;;;;;;24.71;42.92;102991.59;5071317;28;20045;-77
2022/07/08 11:23:30;;;;;;;10.48;1.95;;;;;;;24.65;42.82;102991.94;5066904;28;20505;-77
2022/07/08 11:26:01;;;;;;;9.50;1.65;;;;;;;24.62;43.08;102998.34;5063680;28;20044;-77
2022/07/08 11:28:28;;;;;;;30.73;3.55;;;;;;;24.72;43.11;102993.34;5050498;28;20181;-77
2022/07/08 11:30:57;;;;;;;8.65;1.50;;;;;;;24.70;43.74;103000.66;5070300;28;20563;-78
2022/07/08 11:33:42;;;;;;;10.77;1.50;;;;;;;24.68;43.73;102998.97;5067386;28;20088;-78